sensor_id;sensor_type;location;lat;lon;timestamp;P1;durP1;ratioP1;P2;durP2;ratioP2
24585;SDS011;12743;52.262;6.172;2022-08-02T00:00:18;5.17;;;1.30;;
24585;SDS011;12743;52.262;6.172;2022-08-02T00:02:44;7.35;;;1.77;;
24585;SDS011;12743;52.262;6.172;2022-08-02T00:05:11;6.70;;;1.80;;
24585;SDS011;12743;52.262;6.172;2022-08-02T00:07:37;5.97;;;1.83;;
24585;SDS011;12743;52.262;6.172;2022-08-02T00:10:03;4.53;;;1.50;;
24585;SDS011;12743;52.262;6.172;2022-08-02T00:12:30;5.50;;;1.30;;
24585;SDS011;12743;52.262;6.172;2022-08-02T00:14:55;4.90;;;1.47;;
24585;SDS011;12743;52.262;6.172;2022-08-02T00:17:21;5.60;;;1.10;;
24585;SDS011;12743;52.262;6.172;2022-08-02T00:19:47;5.80;;;1.30;;
24585;SDS011;12743;52.262;6.172;2022-08-02T00:22:12;4.40;;;1.87;;
24585;SDS011;12743;52.262;6.172;2022-08-02T00:24:38;6.87;;;1.83;;
24585;SDS011;12743;52.262;6.172;2022-08-02T00:27:03;5.67;;;1.90;;
24585;SDS011;12743;52.262;6.172;2022-08-02T00:29:29;7.55;;;2.15;;
24585;SDS011;12743;52.262;6.172;2022-08-02T00:31:57;6.97;;;1.80;;
24585;SDS011;12743;52.262;6.172;2022-08-02T00:34:22;6.30;;;1.90;;
24585;SDS011;12743;52.262;6.172;2022-08-02T00:36:50;4.05;;;1.80;;
24585;SDS011;12743;52.262;6.172;2022-08-02T00:39:16;6.70;;;1.88;;
24585;SDS011;12743;52.262;6.172;2022-08-02T00:41:45;5.90;;;1.83;;
24585;SDS011;12743;52.262;6.172;2022-08-02T00:44:12;4.75;;;1.48;;
24585;SDS011;12743;52.262;6.172;2022-08-02T00:46:39;6.80;;;2.35;;
24585;SDS011;12743;52.262;6.172;2022-08-02T00:49:04;7.93;;;1.83;;
24585;SDS011;12743;52.262;6.172;2022-08-02T00:51:30;5.47;;;1.73;;
24585;SDS011;12743;52.262;6.172;2022-08-02T00:53:55;6.47;;;1.93;;
24585;SDS011;12743;52.262;6.172;2022-08-02T00:56:20;7.00;;;1.80;;
24585;SDS011;12743;52.262;6.172;2022-08-02T00:58:46;7.30;;;1.92;;
24585;SDS011;12743;52.262;6.172;2022-08-02T01:01:11;7.93;;;2.20;;
24585;SDS011;12743;52.262;6.172;2022-08-02T01:03:36;8.20;;;2.07;;
24585;SDS011;12743;52.262;6.172;2022-08-02T01:06:02;7.37;;;2.00;;
24585;SDS011;12743;52.262;6.172;2022-08-02T01:08:27;8.60;;;1.83;;
24585;SDS011;12743;52.262;6.172;2022-08-02T01:10:52;8.27;;;2.17;;
24585;SDS011;12743;52.262;6.172;2022-08-02T01:13:18;6.57;;;1.90;;
24585;SDS011;12743;52.262;6.172;2022-08-02T01:15:44;7.47;;;2.40;;
24585;SDS011;12743;52.262;6.172;2022-08-02T01:18:18;5.33;;;1.77;;
24585;SDS011;12743;52.262;6.172;2022-08-02T01:21:09;7.32;;;1.92;;
24585;SDS011;12743;52.262;6.172;2022-08-02T01:29:16;4.85;;;1.55;;
24585;SDS011;12743;52.262;6.172;2022-08-02T01:31:51;8.50;;;1.80;;
24585;SDS011;12743;52.262;6.172;2022-08-02T01:34:23;7.07;;;1.65;;
24585;SDS011;12743;52.262;6.172;2022-08-02T01:37:02;4.43;;;1.90;;
24585;SDS011;12743;52.262;6.172;2022-08-02T01:39:37;7.35;;;2.13;;
24585;SDS011;12743;52.262;6.172;2022-08-02T01:42:06;6.63;;;2.05;;
24585;SDS011;12743;52.262;6.172;2022-08-02T01:44:33;6.17;;;2.00;;
24585;SDS011;12743;52.262;6.172;2022-08-02T01:47:08;4.63;;;1.75;;
24585;SDS011;12743;52.262;6.172;2022-08-02T01:49:39;7.72;;;2.13;;
24585;SDS011;12743;52.262;6.172;2022-08-02T01:52:08;5.50;;;1.67;;
24585;SDS011;12743;52.262;6.172;2022-08-02T01:55:07;4.32;;;1.65;;
24585;SDS011;12743;52.262;6.172;2022-08-02T01:57:38;10.30;;;2.10;;
24585;SDS011;12743;52.262;6.172;2022-08-02T02:00:05;6.90;;;2.35;;
24585;SDS011;12743;52.262;6.172;2022-08-02T02:02:35;7.65;;;2.45;;
24585;SDS011;12743;52.262;6.172;2022-08-02T02:05:02;9.63;;;2.35;;
24585;SDS011;12743;52.262;6.172;2022-08-02T02:07:29;5.70;;;2.03;;
24585;SDS011;12743;52.262;6.172;2022-08-02T02:09:57;8.93;;;2.23;;
24585;SDS011;12743;52.262;6.172;2022-08-02T02:12:25;5.07;;;2.30;;
24585;SDS011;12743;52.262;6.172;2022-08-02T02:14:51;5.70;;;1.95;;
24585;SDS011;12743;52.262;6.172;2022-08-02T02:17:19;5.70;;;1.95;;
24585;SDS011;12743;52.262;6.172;2022-08-02T02:19:46;4.93;;;1.85;;
24585;SDS011;12743;52.262;6.172;2022-08-02T02:22:15;9.00;;;2.20;;
24585;SDS011;12743;52.262;6.172;2022-08-02T02:24:40;6.43;;;2.50;;
24585;SDS011;12743;52.262;6.172;2022-08-02T02:27:09;11.37;;;2.60;;
24585;SDS011;12743;52.262;6.172;2022-08-02T02:29:38;5.47;;;2.28;;
24585;SDS011;12743;52.262;6.172;2022-08-02T02:32:09;8.48;;;2.75;;
24585;SDS011;12743;52.262;6.172;2022-08-02T02:34:36;7.43;;;2.13;;
24585;SDS011;12743;52.262;6.172;2022-08-02T02:37:06;8.73;;;2.38;;
24585;SDS011;12743;52.262;6.172;2022-08-02T02:39:36;6.73;;;1.90;;
24585;SDS011;12743;52.262;6.172;2022-08-02T02:42:06;8.20;;;2.65;;
24585;SDS011;12743;52.262;6.172;2022-08-02T02:44:33;9.73;;;2.90;;
24585;SDS011;12743;52.262;6.172;2022-08-02T02:47:00;5.55;;;2.08;;
24585;SDS011;12743;52.262;6.172;2022-08-02T02:49:26;6.53;;;2.78;;
24585;SDS011;12743;52.262;6.172;2022-08-02T02:51:55;6.23;;;2.27;;
24585;SDS011;12743;52.262;6.172;2022-08-02T02:54:21;8.77;;;2.67;;
24585;SDS011;12743;52.262;6.172;2022-08-02T02:56:48;6.80;;;2.08;;
24585;SDS011;12743;52.262;6.172;2022-08-02T02:59:14;8.43;;;2.05;;
24585;SDS011;12743;52.262;6.172;2022-08-02T03:01:40;5.97;;;2.35;;
24585;SDS011;12743;52.262;6.172;2022-08-02T03:04:06;7.43;;;2.07;;
24585;SDS011;12743;52.262;6.172;2022-08-02T03:06:38;6.15;;;2.15;;
24585;SDS011;12743;52.262;6.172;2022-08-02T03:09:05;5.55;;;1.70;;
24585;SDS011;12743;52.262;6.172;2022-08-02T03:11:31;6.70;;;2.10;;
24585;SDS011;12743;52.262;6.172;2022-08-02T03:14:00;4.43;;;1.88;;
24585;SDS011;12743;52.262;6.172;2022-08-02T03:16:27;7.25;;;2.45;;
24585;SDS011;12743;52.262;6.172;2022-08-02T03:18:53;5.67;;;1.47;;
24585;SDS011;12743;52.262;6.172;2022-08-02T03:21:20;6.32;;;2.58;;
24585;SDS011;12743;52.262;6.172;2022-08-02T03:23:45;6.53;;;2.40;;
24585;SDS011;12743;52.262;6.172;2022-08-02T03:26:11;6.27;;;2.53;;
24585;SDS011;12743;52.262;6.172;2022-08-02T03:28:36;5.87;;;2.17;;
24585;SDS011;12743;52.262;6.172;2022-08-02T03:31:02;9.77;;;2.27;;
24585;SDS011;12743;52.262;6.172;2022-08-02T03:33:27;6.45;;;2.50;;
24585;SDS011;12743;52.262;6.172;2022-08-02T03:35:57;8.45;;;2.85;;
24585;SDS011;12743;52.262;6.172;2022-08-02T03:38:25;7.18;;;2.10;;
24585;SDS011;12743;52.262;6.172;2022-08-02T03:40:51;4.23;;;1.97;;
24585;SDS011;12743;52.262;6.172;2022-08-02T03:43:18;7.47;;;2.00;;
24585;SDS011;12743;52.262;6.172;2022-08-02T03:45:45;8.10;;;2.30;;
24585;SDS011;12743;52.262;6.172;2022-08-02T03:48:12;5.30;;;1.73;;
24585;SDS011;12743;52.262;6.172;2022-08-02T03:50:39;6.03;;;2.53;;
24585;SDS011;12743;52.262;6.172;2022-08-02T03:53:06;5.50;;;1.70;;
24585;SDS011;12743;52.262;6.172;2022-08-02T03:55:33;3.78;;;1.88;;
24585;SDS011;12743;52.262;6.172;2022-08-02T03:57:59;4.97;;;1.90;;
24585;SDS011;12743;52.262;6.172;2022-08-02T04:00:25;7.13;;;1.37;;
24585;SDS011;12743;52.262;6.172;2022-08-02T04:02:50;4.93;;;1.73;;
24585;SDS011;12743;52.262;6.172;2022-08-02T04:05:16;7.07;;;2.17;;
24585;SDS011;12743;52.262;6.172;2022-08-02T04:07:41;6.40;;;2.43;;
24585;SDS011;12743;52.262;6.172;2022-08-02T04:10:07;6.35;;;2.00;;
24585;SDS011;12743;52.262;6.172;2022-08-02T04:12:33;4.75;;;1.75;;
24585;SDS011;12743;52.262;6.172;2022-08-02T04:14:59;4.30;;;1.73;;
24585;SDS011;12743;52.262;6.172;2022-08-02T04:17:25;6.93;;;2.13;;
24585;SDS011;12743;52.262;6.172;2022-08-02T04:19:55;4.95;;;1.98;;
24585;SDS011;12743;52.262;6.172;2022-08-02T04:22:30;7.68;;;2.17;;
24585;SDS011;12743;52.262;6.172;2022-08-02T04:25:03;7.23;;;2.50;;
24585;SDS011;12743;52.262;6.172;2022-08-02T04:27:31;5.38;;;2.20;;
24585;SDS011;12743;52.262;6.172;2022-08-02T04:30:00;4.50;;;1.52;;
24585;SDS011;12743;52.262;6.172;2022-08-02T04:32:27;5.13;;;1.70;;
24585;SDS011;12743;52.262;6.172;2022-08-02T04:34:54;5.15;;;1.75;;
24585;SDS011;12743;52.262;6.172;2022-08-02T04:37:19;7.43;;;3.40;;
24585;SDS011;12743;52.262;6.172;2022-08-02T04:39:45;9.47;;;2.13;;
24585;SDS011;12743;52.262;6.172;2022-08-02T04:42:18;5.53;;;2.03;;
24585;SDS011;12743;52.262;6.172;2022-08-02T04:44:45;12.67;;;3.53;;
24585;SDS011;12743;52.262;6.172;2022-08-02T04:47:10;6.20;;;2.35;;
24585;SDS011;12743;52.262;6.172;2022-08-02T04:49:37;14.17;;;3.60;;
24585;SDS011;12743;52.262;6.172;2022-08-02T04:52:03;6.25;;;2.65;;
24585;SDS011;12743;52.262;6.172;2022-08-02T04:54:28;9.63;;;2.90;;
24585;SDS011;12743;52.262;6.172;2022-08-02T04:56:54;9.20;;;2.63;;
24585;SDS011;12743;52.262;6.172;2022-08-02T04:59:19;7.27;;;2.20;;
24585;SDS011;12743;52.262;6.172;2022-08-02T05:01:44;8.30;;;2.90;;
24585;SDS011;12743;52.262;6.172;2022-08-02T05:04:10;5.27;;;2.23;;
24585;SDS011;12743;52.262;6.172;2022-08-02T05:06:35;11.67;;;6.07;;
24585;SDS011;12743;52.262;6.172;2022-08-02T05:09:01;10.17;;;4.50;;
24585;SDS011;12743;52.262;6.172;2022-08-02T05:14:21;9.73;;;5.32;;
24585;SDS011;12743;52.262;6.172;2022-08-02T05:16:47;9.67;;;4.27;;
24585;SDS011;12743;52.262;6.172;2022-08-02T05:19:12;8.33;;;2.97;;
24585;SDS011;12743;52.262;6.172;2022-08-02T05:21:37;13.67;;;3.67;;
24585;SDS011;12743;52.262;6.172;2022-08-02T05:24:03;12.07;;;4.65;;
24585;SDS011;12743;52.262;6.172;2022-08-02T05:26:29;13.50;;;5.93;;
24585;SDS011;12743;52.262;6.172;2022-08-02T05:28:54;8.60;;;3.20;;
24585;SDS011;12743;52.262;6.172;2022-08-02T05:31:19;8.82;;;4.35;;
24585;SDS011;12743;52.262;6.172;2022-08-02T05:33:45;9.27;;;4.07;;
24585;SDS011;12743;52.262;6.172;2022-08-02T05:36:10;11.03;;;4.27;;
24585;SDS011;12743;52.262;6.172;2022-08-02T05:38:36;8.90;;;3.53;;
24585;SDS011;12743;52.262;6.172;2022-08-02T05:41:01;10.47;;;4.10;;
24585;SDS011;12743;52.262;6.172;2022-08-02T05:43:30;8.73;;;4.07;;
24585;SDS011;12743;52.262;6.172;2022-08-02T05:45:55;13.60;;;4.33;;
24585;SDS011;12743;52.262;6.172;2022-08-02T05:48:20;11.25;;;4.50;;
24585;SDS011;12743;52.262;6.172;2022-08-02T05:50:48;12.33;;;4.80;;
24585;SDS011;12743;52.262;6.172;2022-08-02T05:53:22;12.65;;;3.58;;
24585;SDS011;12743;52.262;6.172;2022-08-02T05:56:37;8.02;;;3.10;;
24585;SDS011;12743;52.262;6.172;2022-08-02T06:01:31;8.10;;;3.10;;
24585;SDS011;12743;52.262;6.172;2022-08-02T06:04:13;7.03;;;3.97;;
24585;SDS011;12743;52.262;6.172;2022-08-02T06:06:49;7.03;;;3.53;;
24585;SDS011;12743;52.262;6.172;2022-08-02T06:09:19;9.00;;;3.63;;
24585;SDS011;12743;52.262;6.172;2022-08-02T06:11:48;7.88;;;3.47;;
24585;SDS011;12743;52.262;6.172;2022-08-02T06:14:17;9.57;;;3.50;;
24585;SDS011;12743;52.262;6.172;2022-08-02T06:16:43;9.33;;;4.23;;
24585;SDS011;12743;52.262;6.172;2022-08-02T06:19:12;9.30;;;3.75;;
24585;SDS011;12743;52.262;6.172;2022-08-02T06:21:39;11.38;;;3.88;;
24585;SDS011;12743;52.262;6.172;2022-08-02T06:24:09;9.07;;;3.15;;
24585;SDS011;12743;52.262;6.172;2022-08-02T06:26:36;10.77;;;3.90;;
24585;SDS011;12743;52.262;6.172;2022-08-02T06:29:02;11.60;;;3.63;;
24585;SDS011;12743;52.262;6.172;2022-08-02T06:31:28;11.95;;;3.63;;
24585;SDS011;12743;52.262;6.172;2022-08-02T06:33:54;11.97;;;4.33;;
24585;SDS011;12743;52.262;6.172;2022-08-02T06:36:26;8.15;;;3.30;;
24585;SDS011;12743;52.262;6.172;2022-08-02T06:39:01;8.87;;;3.90;;
24585;SDS011;12743;52.262;6.172;2022-08-02T06:41:39;9.38;;;3.33;;
24585;SDS011;12743;52.262;6.172;2022-08-02T06:44:13;12.00;;;3.67;;
24585;SDS011;12743;52.262;6.172;2022-08-02T06:46:38;12.93;;;3.80;;
24585;SDS011;12743;52.262;6.172;2022-08-02T06:49:04;9.80;;;3.30;;
24585;SDS011;12743;52.262;6.172;2022-08-02T06:53:59;10.07;;;4.22;;
24585;SDS011;12743;52.262;6.172;2022-08-02T06:56:24;10.13;;;3.83;;
24585;SDS011;12743;52.262;6.172;2022-08-02T06:58:49;13.10;;;4.17;;
24585;SDS011;12743;52.262;6.172;2022-08-02T07:01:16;11.53;;;4.33;;
24585;SDS011;12743;52.262;6.172;2022-08-02T07:03:43;12.32;;;4.00;;
24585;SDS011;12743;52.262;6.172;2022-08-02T07:06:11;10.30;;;3.55;;
24585;SDS011;12743;52.262;6.172;2022-08-02T07:08:37;9.30;;;3.50;;
24585;SDS011;12743;52.262;6.172;2022-08-02T07:13:40;11.25;;;4.22;;
24585;SDS011;12743;52.262;6.172;2022-08-02T07:16:06;10.87;;;3.60;;
24585;SDS011;12743;52.262;6.172;2022-08-02T07:18:31;11.43;;;4.30;;
24585;SDS011;12743;52.262;6.172;2022-08-02T07:20:58;9.68;;;4.00;;
24585;SDS011;12743;52.262;6.172;2022-08-02T07:23:23;11.53;;;3.60;;
24585;SDS011;12743;52.262;6.172;2022-08-02T07:25:49;9.17;;;3.93;;
24585;SDS011;12743;52.262;6.172;2022-08-02T07:28:14;9.13;;;4.20;;
24585;SDS011;12743;52.262;6.172;2022-08-02T07:30:40;9.23;;;3.78;;
24585;SDS011;12743;52.262;6.172;2022-08-02T07:33:07;9.93;;;3.65;;
24585;SDS011;12743;52.262;6.172;2022-08-02T07:35:35;8.17;;;4.10;;
24585;SDS011;12743;52.262;6.172;2022-08-02T07:38:00;8.93;;;3.22;;
24585;SDS011;12743;52.262;6.172;2022-08-02T07:40:29;8.83;;;3.80;;
24585;SDS011;12743;52.262;6.172;2022-08-02T07:42:55;11.10;;;4.20;;
24585;SDS011;12743;52.262;6.172;2022-08-02T07:45:21;10.07;;;4.23;;
24585;SDS011;12743;52.262;6.172;2022-08-02T07:47:47;7.88;;;3.70;;
24585;SDS011;12743;52.262;6.172;2022-08-02T07:50:14;10.57;;;4.93;;
24585;SDS011;12743;52.262;6.172;2022-08-02T07:52:41;8.60;;;4.13;;
24585;SDS011;12743;52.262;6.172;2022-08-02T07:55:08;10.75;;;4.35;;
24585;SDS011;12743;52.262;6.172;2022-08-02T07:57:33;10.15;;;4.70;;
24585;SDS011;12743;52.262;6.172;2022-08-02T07:59:59;10.57;;;4.00;;
24585;SDS011;12743;52.262;6.172;2022-08-02T08:02:25;10.07;;;4.33;;
24585;SDS011;12743;52.262;6.172;2022-08-02T08:04:50;10.33;;;4.37;;
24585;SDS011;12743;52.262;6.172;2022-08-02T08:07:16;12.20;;;4.80;;
24585;SDS011;12743;52.262;6.172;2022-08-02T08:09:42;9.10;;;4.17;;
24585;SDS011;12743;52.262;6.172;2022-08-02T08:12:10;9.90;;;3.17;;
24585;SDS011;12743;52.262;6.172;2022-08-02T08:14:36;8.80;;;3.10;;
24585;SDS011;12743;52.262;6.172;2022-08-02T08:17:02;6.78;;;3.20;;
24585;SDS011;12743;52.262;6.172;2022-08-02T08:19:28;7.50;;;3.50;;
24585;SDS011;12743;52.262;6.172;2022-08-02T08:21:53;9.10;;;3.57;;
24585;SDS011;12743;52.262;6.172;2022-08-02T08:24:24;8.02;;;3.58;;
24585;SDS011;12743;52.262;6.172;2022-08-02T08:26:53;7.72;;;3.35;;
24585;SDS011;12743;52.262;6.172;2022-08-02T08:29:19;9.87;;;3.70;;
24585;SDS011;12743;52.262;6.172;2022-08-02T08:31:45;9.20;;;3.80;;
24585;SDS011;12743;52.262;6.172;2022-08-02T08:34:11;8.93;;;3.10;;
24585;SDS011;12743;52.262;6.172;2022-08-02T08:36:37;7.25;;;2.70;;
24585;SDS011;12743;52.262;6.172;2022-08-02T08:39:03;9.07;;;3.17;;
24585;SDS011;12743;52.262;6.172;2022-08-02T08:41:28;6.50;;;2.70;;
24585;SDS011;12743;52.262;6.172;2022-08-02T08:43:54;7.90;;;3.40;;
24585;SDS011;12743;52.262;6.172;2022-08-02T08:46:23;7.50;;;2.92;;
24585;SDS011;12743;52.262;6.172;2022-08-02T08:48:52;7.93;;;3.53;;
24585;SDS011;12743;52.262;6.172;2022-08-02T08:51:22;8.90;;;3.78;;
24585;SDS011;12743;52.262;6.172;2022-08-02T08:53:49;7.47;;;3.67;;
24585;SDS011;12743;52.262;6.172;2022-08-02T08:56:18;7.03;;;3.60;;
24585;SDS011;12743;52.262;6.172;2022-08-02T08:58:44;5.93;;;2.90;;
24585;SDS011;12743;52.262;6.172;2022-08-02T09:01:11;8.17;;;3.60;;
24585;SDS011;12743;52.262;6.172;2022-08-02T09:03:37;8.18;;;2.90;;
24585;SDS011;12743;52.262;6.172;2022-08-02T09:06:03;8.17;;;2.80;;
24585;SDS011;12743;52.262;6.172;2022-08-02T09:08:28;6.13;;;2.53;;
24585;SDS011;12743;52.262;6.172;2022-08-02T09:10:54;6.57;;;3.67;;
24585;SDS011;12743;52.262;6.172;2022-08-02T09:15:54;5.75;;;2.78;;
24585;SDS011;12743;52.262;6.172;2022-08-02T09:18:28;6.95;;;2.90;;
24585;SDS011;12743;52.262;6.172;2022-08-02T09:21:04;5.80;;;2.70;;
24585;SDS011;12743;52.262;6.172;2022-08-02T09:23:33;6.40;;;2.90;;
24585;SDS011;12743;52.262;6.172;2022-08-02T09:26:01;7.23;;;2.70;;
24585;SDS011;12743;52.262;6.172;2022-08-02T09:28:29;6.65;;;3.30;;
24585;SDS011;12743;52.262;6.172;2022-08-02T09:30:57;6.57;;;2.92;;
24585;SDS011;12743;52.262;6.172;2022-08-02T09:33:32;5.70;;;3.03;;
24585;SDS011;12743;52.262;6.172;2022-08-02T09:36:03;6.32;;;2.72;;
24585;SDS011;12743;52.262;6.172;2022-08-02T09:38:33;6.97;;;2.50;;
24585;SDS011;12743;52.262;6.172;2022-08-02T09:41:00;8.05;;;2.67;;
24585;SDS011;12743;52.262;6.172;2022-08-02T09:43:33;6.65;;;2.58;;
24585;SDS011;12743;52.262;6.172;2022-08-02T09:46:07;6.22;;;2.20;;
24585;SDS011;12743;52.262;6.172;2022-08-02T09:48:34;7.88;;;1.85;;
24585;SDS011;12743;52.262;6.172;2022-08-02T09:50:59;3.10;;;1.30;;
24585;SDS011;12743;52.262;6.172;2022-08-02T09:53:24;7.03;;;1.40;;
24585;SDS011;12743;52.262;6.172;2022-08-02T09:55:56;4.10;;;1.40;;
24585;SDS011;12743;52.262;6.172;2022-08-02T09:58:21;5.97;;;1.40;;
24585;SDS011;12743;52.262;6.172;2022-08-02T10:00:53;7.13;;;1.60;;
24585;SDS011;12743;52.262;6.172;2022-08-02T10:03:20;3.67;;;1.40;;
24585;SDS011;12743;52.262;6.172;2022-08-02T10:05:50;3.83;;;1.50;;
24585;SDS011;12743;52.262;6.172;2022-08-02T10:08:18;2.67;;;1.13;;
24585;SDS011;12743;52.262;6.172;2022-08-02T10:10:44;4.60;;;1.50;;
24585;SDS011;12743;52.262;6.172;2022-08-02T10:13:09;4.13;;;1.40;;
24585;SDS011;12743;52.262;6.172;2022-08-02T10:15:38;4.63;;;1.63;;
24585;SDS011;12743;52.262;6.172;2022-08-02T10:18:04;4.38;;;1.58;;
24585;SDS011;12743;52.262;6.172;2022-08-02T10:20:32;3.20;;;1.58;;
24585;SDS011;12743;52.262;6.172;2022-08-02T10:23:04;6.63;;;1.80;;
24585;SDS011;12743;52.262;6.172;2022-08-02T10:25:32;7.25;;;1.70;;
24585;SDS011;12743;52.262;6.172;2022-08-02T10:28:01;3.60;;;1.30;;
24585;SDS011;12743;52.262;6.172;2022-08-02T10:30:27;7.05;;;1.90;;
24585;SDS011;12743;52.262;6.172;2022-08-02T10:32:54;3.55;;;1.73;;
24585;SDS011;12743;52.262;6.172;2022-08-02T10:35:22;4.60;;;2.10;;
24585;SDS011;12743;52.262;6.172;2022-08-02T10:37:50;7.57;;;2.47;;
24585;SDS011;12743;52.262;6.172;2022-08-02T10:40:18;3.90;;;1.80;;
24585;SDS011;12743;52.262;6.172;2022-08-02T10:42:56;7.78;;;1.95;;
24585;SDS011;12743;52.262;6.172;2022-08-02T10:45:25;4.43;;;2.03;;
24585;SDS011;12743;52.262;6.172;2022-08-02T10:55:50;4.80;;;1.67;;
24585;SDS011;12743;52.262;6.172;2022-08-02T10:58:21;5.18;;;1.95;;
24585;SDS011;12743;52.262;6.172;2022-08-02T11:00:47;4.53;;;2.10;;
24585;SDS011;12743;52.262;6.172;2022-08-02T11:03:32;18.97;;;3.10;;
24585;SDS011;12743;52.262;6.172;2022-08-02T11:06:01;9.68;;;2.05;;
24585;SDS011;12743;52.262;6.172;2022-08-02T11:08:30;26.60;;;3.40;;
24585;SDS011;12743;52.262;6.172;2022-08-02T11:10:57;18.00;;;3.47;;
24585;SDS011;12743;52.262;6.172;2022-08-02T11:13:24;5.70;;;2.55;;
24585;SDS011;12743;52.262;6.172;2022-08-02T11:21:25;9.23;;;2.28;;
24585;SDS011;12743;52.262;6.172;2022-08-02T11:23:54;5.63;;;1.90;;
24585;SDS011;12743;52.262;6.172;2022-08-02T11:29:02;4.13;;;2.03;;
24585;SDS011;12743;52.262;6.172;2022-08-02T11:31:29;3.53;;;1.80;;
24585;SDS011;12743;52.262;6.172;2022-08-02T11:34:03;5.18;;;2.17;;
24585;SDS011;12743;52.262;6.172;2022-08-02T11:36:29;4.80;;;1.70;;
24585;SDS011;12743;52.262;6.172;2022-08-02T11:39:08;5.75;;;2.85;;
24585;SDS011;12743;52.262;6.172;2022-08-02T11:41:37;5.22;;;2.50;;
24585;SDS011;12743;52.262;6.172;2022-08-02T11:44:03;7.20;;;2.80;;
24585;SDS011;12743;52.262;6.172;2022-08-02T11:46:29;4.15;;;2.10;;
24585;SDS011;12743;52.262;6.172;2022-08-02T11:48:54;4.43;;;2.00;;
24585;SDS011;12743;52.262;6.172;2022-08-02T11:51:19;6.20;;;2.20;;
24585;SDS011;12743;52.262;6.172;2022-08-02T11:53:49;3.90;;;1.83;;
24585;SDS011;12743;52.262;6.172;2022-08-02T11:56:24;3.92;;;1.90;;
24585;SDS011;12743;52.262;6.172;2022-08-02T11:59:01;4.93;;;2.33;;
24585;SDS011;12743;52.262;6.172;2022-08-02T12:01:30;5.40;;;2.07;;
24585;SDS011;12743;52.262;6.172;2022-08-02T12:03:56;7.25;;;2.10;;
24585;SDS011;12743;52.262;6.172;2022-08-02T12:06:25;7.32;;;2.63;;
24585;SDS011;12743;52.262;6.172;2022-08-02T12:08:57;4.25;;;2.20;;
24585;SDS011;12743;52.262;6.172;2022-08-02T12:11:32;6.85;;;2.20;;
24585;SDS011;12743;52.262;6.172;2022-08-02T12:13:58;4.97;;;2.23;;
24585;SDS011;12743;52.262;6.172;2022-08-02T12:16:31;3.70;;;2.30;;
24585;SDS011;12743;52.262;6.172;2022-08-02T12:19:21;11.23;;;2.45;;
24585;SDS011;12743;52.262;6.172;2022-08-02T12:24:37;9.18;;;2.42;;
24585;SDS011;12743;52.262;6.172;2022-08-02T12:27:04;5.83;;;2.10;;
24585;SDS011;12743;52.262;6.172;2022-08-02T12:31:56;5.60;;;2.13;;
24585;SDS011;12743;52.262;6.172;2022-08-02T12:34:22;6.32;;;2.40;;
24585;SDS011;12743;52.262;6.172;2022-08-02T12:37:04;9.68;;;1.73;;
24585;SDS011;12743;52.262;6.172;2022-08-02T12:39:44;5.32;;;2.00;;
24585;SDS011;12743;52.262;6.172;2022-08-02T12:42:13;10.00;;;3.13;;
24585;SDS011;12743;52.262;6.172;2022-08-02T12:44:53;5.83;;;2.30;;
24585;SDS011;12743;52.262;6.172;2022-08-02T12:47:21;4.60;;;2.30;;
24585;SDS011;12743;52.262;6.172;2022-08-02T12:50:09;4.80;;;1.90;;
24585;SDS011;12743;52.262;6.172;2022-08-02T12:53:03;5.20;;;2.00;;
24585;SDS011;12743;52.262;6.172;2022-08-02T12:55:46;7.95;;;2.00;;
24585;SDS011;12743;52.262;6.172;2022-08-02T12:58:12;5.40;;;1.80;;
24585;SDS011;12743;52.262;6.172;2022-08-02T13:00:38;3.60;;;2.00;;
24585;SDS011;12743;52.262;6.172;2022-08-02T13:03:04;5.07;;;1.77;;
24585;SDS011;12743;52.262;6.172;2022-08-02T13:05:32;3.55;;;1.63;;
24585;SDS011;12743;52.262;6.172;2022-08-02T13:07:59;3.33;;;1.60;;
24585;SDS011;12743;52.262;6.172;2022-08-02T13:10:25;4.95;;;1.75;;
24585;SDS011;12743;52.262;6.172;2022-08-02T13:12:51;3.93;;;1.60;;
24585;SDS011;12743;52.262;6.172;2022-08-02T13:15:17;3.53;;;1.63;;
24585;SDS011;12743;52.262;6.172;2022-08-02T13:17:43;4.80;;;1.80;;
24585;SDS011;12743;52.262;6.172;2022-08-02T13:20:09;4.57;;;1.43;;
24585;SDS011;12743;52.262;6.172;2022-08-02T13:22:35;3.30;;;1.57;;
24585;SDS011;12743;52.262;6.172;2022-08-02T13:25:01;3.42;;;1.50;;
24585;SDS011;12743;52.262;6.172;2022-08-02T13:27:28;3.92;;;1.38;;
24585;SDS011;12743;52.262;6.172;2022-08-02T13:29:54;3.80;;;1.30;;
24585;SDS011;12743;52.262;6.172;2022-08-02T13:32:21;3.05;;;1.33;;
24585;SDS011;12743;52.262;6.172;2022-08-02T13:34:47;2.88;;;1.30;;
24585;SDS011;12743;52.262;6.172;2022-08-02T13:37:12;3.47;;;1.40;;
24585;SDS011;12743;52.262;6.172;2022-08-02T13:39:38;3.58;;;1.40;;
24585;SDS011;12743;52.262;6.172;2022-08-02T13:42:03;3.23;;;1.67;;
24585;SDS011;12743;52.262;6.172;2022-08-02T13:44:29;3.07;;;1.40;;
24585;SDS011;12743;52.262;6.172;2022-08-02T13:46:54;4.73;;;1.60;;
24585;SDS011;12743;52.262;6.172;2022-08-02T13:49:20;3.38;;;1.50;;
24585;SDS011;12743;52.262;6.172;2022-08-02T13:51:46;4.30;;;1.45;;
24585;SDS011;12743;52.262;6.172;2022-08-02T13:54:12;2.77;;;1.30;;
24585;SDS011;12743;52.262;6.172;2022-08-02T13:56:38;3.78;;;1.50;;
24585;SDS011;12743;52.262;6.172;2022-08-02T13:59:04;4.27;;;1.50;;
24585;SDS011;12743;52.262;6.172;2022-08-02T14:01:29;3.25;;;1.55;;
24585;SDS011;12743;52.262;6.172;2022-08-02T14:03:56;4.07;;;1.37;;
24585;SDS011;12743;52.262;6.172;2022-08-02T14:06:22;3.42;;;1.10;;
24585;SDS011;12743;52.262;6.172;2022-08-02T14:08:48;3.47;;;1.00;;
24585;SDS011;12743;52.262;6.172;2022-08-02T14:11:13;2.63;;;1.05;;
24585;SDS011;12743;52.262;6.172;2022-08-02T14:13:39;4.40;;;1.20;;
24585;SDS011;12743;52.262;6.172;2022-08-02T14:16:04;3.50;;;1.10;;
24585;SDS011;12743;52.262;6.172;2022-08-02T14:18:30;3.33;;;1.30;;
24585;SDS011;12743;52.262;6.172;2022-08-02T14:20:55;3.28;;;1.20;;
24585;SDS011;12743;52.262;6.172;2022-08-02T14:23:21;4.23;;;1.20;;
24585;SDS011;12743;52.262;6.172;2022-08-02T14:25:46;2.77;;;1.00;;
24585;SDS011;12743;52.262;6.172;2022-08-02T14:28:12;4.00;;;1.30;;
24585;SDS011;12743;52.262;6.172;2022-08-02T14:30:38;2.15;;;0.90;;
24585;SDS011;12743;52.262;6.172;2022-08-02T14:33:04;2.40;;;1.03;;
24585;SDS011;12743;52.262;6.172;2022-08-02T14:35:29;3.53;;;1.10;;
24585;SDS011;12743;52.262;6.172;2022-08-02T14:37:55;3.78;;;1.00;;
24585;SDS011;12743;52.262;6.172;2022-08-02T14:40:20;3.87;;;1.30;;
24585;SDS011;12743;52.262;6.172;2022-08-02T14:42:46;3.38;;;1.15;;
24585;SDS011;12743;52.262;6.172;2022-08-02T14:45:11;2.47;;;1.00;;
24585;SDS011;12743;52.262;6.172;2022-08-02T14:47:37;3.87;;;1.10;;
24585;SDS011;12743;52.262;6.172;2022-08-02T14:50:02;3.30;;;1.00;;
24585;SDS011;12743;52.262;6.172;2022-08-02T14:52:28;8.70;;;1.15;;
24585;SDS011;12743;52.262;6.172;2022-08-02T14:54:53;3.53;;;1.30;;
24585;SDS011;12743;52.262;6.172;2022-08-02T14:57:19;2.05;;;1.30;;
24585;SDS011;12743;52.262;6.172;2022-08-02T14:59:45;5.00;;;1.40;;
24585;SDS011;12743;52.262;6.172;2022-08-02T15:02:23;3.60;;;1.15;;
24585;SDS011;12743;52.262;6.172;2022-08-02T15:04:48;3.03;;;1.13;;
24585;SDS011;12743;52.262;6.172;2022-08-02T15:07:14;5.67;;;1.30;;
24585;SDS011;12743;52.262;6.172;2022-08-02T15:09:39;4.67;;;1.00;;
24585;SDS011;12743;52.262;6.172;2022-08-02T15:12:05;2.87;;;1.30;;
24585;SDS011;12743;52.262;6.172;2022-08-02T15:14:31;1.98;;;1.10;;
24585;SDS011;12743;52.262;6.172;2022-08-02T15:16:56;4.10;;;1.10;;
24585;SDS011;12743;52.262;6.172;2022-08-02T15:19:21;3.95;;;0.90;;
24585;SDS011;12743;52.262;6.172;2022-08-02T15:21:47;2.70;;;1.63;;
24585;SDS011;12743;52.262;6.172;2022-08-02T15:24:15;4.20;;;1.50;;
24585;SDS011;12743;52.262;6.172;2022-08-02T15:26:41;5.20;;;1.30;;
24585;SDS011;12743;52.262;6.172;2022-08-02T15:29:06;3.80;;;1.40;;